Kentucky Observed Data For Previous 48 Hours

Caption
Day and Hour Reservoir Elevation (behind dam)* Tailwater Elevation (below dam)* Average Hourly Discharge*
5/24/2019 1 AM CDT 358.84 316.85 28,254
5/24/2019 2 AM CDT 358.89 316.53 21,156
5/24/2019 3 AM CDT 358.92 316.44 14,119
5/24/2019 4 AM CDT 358.89 316.41 13,887
5/24/2019 5 AM CDT 358.87 316.30 13,836
5/24/2019 6 AM CDT 358.88 316.27 13,798
5/24/2019 7 AM CDT 358.85 316.15 13,947
5/24/2019 8 AM CDT 358.86 316.01 20,881
5/24/2019 9 AM CDT 358.85 315.98 21,016
5/24/2019 10 AM CDT 358.88 316.02 27,718
5/24/2019 11 AM CDT 358.90 316.08 34,371
5/24/2019 12 PM CDT 358.87 315.96 34,318
5/24/2019 1 PM CDT 358.83 315.97 34,339
5/24/2019 2 PM CDT 358.81 315.92 34,518
5/24/2019 3 PM CDT 358.82 315.96 34,609
5/24/2019 4 PM CDT 358.81 316.01 34,535
5/24/2019 5 PM CDT 358.82 315.83 34,515
5/24/2019 6 PM CDT 358.85 315.80 34,495
5/24/2019 7 PM CDT 358.96 315.87 34,481
5/24/2019 8 PM CDT 358.99 315.64 27,845
5/24/2019 9 PM CDT 359.01 315.49 20,807
5/24/2019 10 PM CDT 359.01 315.39 13,774
5/24/2019 11 PM CDT 359.00 315.43 13,619
5/25/2019 12 AM CDT 358.99 315.50 13,601
5/25/2019 1 AM CDT 358.99 315.10 7,101
5/25/2019 2 AM CDT 358.98 315.10 6,911
5/25/2019 3 AM CDT 359.00 315.16 6,941
5/25/2019 4 AM CDT 358.99 314.98 6,899
5/25/2019 5 AM CDT 359.00 314.93 6,900
5/25/2019 6 AM CDT 359.00 314.88 6,898
5/25/2019 7 AM CDT 358.99 314.83 6,910
5/25/2019 8 AM CDT 359.03 314.72 6,938
5/25/2019 9 AM CDT 359.03 314.61 6,952
5/25/2019 10 AM CDT 359.01 314.71 7,226
5/25/2019 11 AM CDT 358.96 314.87 20,669
5/25/2019 12 PM CDT 358.96 314.90 27,545
5/25/2019 1 PM CDT 358.93 315.00 34,684
5/25/2019 2 PM CDT 358.84 315.23 44,001
5/25/2019 3 PM CDT 358.80 315.36 63,383
5/25/2019 4 PM CDT 358.79 315.28 63,303
5/25/2019 5 PM CDT 358.78 315.20 63,203
5/25/2019 6 PM CDT 358.77 315.38 63,580
5/25/2019 7 PM CDT 358.86 314.91 44,104
5/25/2019 8 PM CDT 358.91 314.79 35,166
5/25/2019 9 PM CDT 358.93 314.80 28,286
5/25/2019 10 PM CDT 358.93 314.84 28,048
5/25/2019 11 PM CDT 358.96 314.63 20,970
5/26/2019 12 AM CDT 358.97 314.30 13,872
5/26/2019 1 AM CDT 359.01 314.27 7,144
5/26/2019 2 AM CDT 359.01 314.40 6,920
5/26/2019 3 AM CDT 359.01 314.26 6,894
5/26/2019 4 AM CDT 359.00 314.11 6,908
5/26/2019 5 AM CDT 358.99 314.08 6,893
5/26/2019 6 AM CDT 358.96 314.10 6,893
5/26/2019 7 AM CDT 359.00 314.05 6,927
5/26/2019 8 AM CDT 359.01 313.89 6,939
5/26/2019 9 AM CDT 359.01 313.99 7,060
5/26/2019 10 AM CDT 358.99 314.14 13,725
5/26/2019 11 AM CDT 358.98 314.14 20,747
5/26/2019 12 PM CDT 358.95 314.07 27,439
5/26/2019 1 PM CDT 358.92 314.28 34,600
5/26/2019 2 PM CDT 358.85 314.53 43,176
5/26/2019 3 PM CDT 358.83 314.86 62,989
5/26/2019 4 PM CDT 358.79 314.73 63,228

Elevations are in feet above sea level. Discharges are in cubic feet per second and are reported at the end of the hour.